San Francisco, California
Traffic Map
Current Weather Conditions
San Francisco, California
Overcast
Overcast
55°
Feels Like: 55°
Wind Chill: 55° Ceiling: 1100
Heat Index: 55° Visibility: 10mi
Dew Point: 49° Wind: 7mph
Humidity: 80% Direction: 260° (W)
Pressure: 30.06in Gusts: 0mph
Raw Report DataKSFO 240656Z 26006KT 10SM BKN011 OVC015 13/09 A3006 RMK AO2 SLP180 T01280094
Traffic Incident Summary
Active as of:
Severity:
Category:
InformationThere was an issue retrieving the traffic information for this location. Please try a different location or try again shortly.
Advertisements
Track Severe Weather on mobile